Αρχική σελίδα
METAR-TAF:

METAR-TAF

Αεροδρόμια :

La Argelia

Loja, Ισημερινός

γεωγραφικό πλάτος: 03-59-45S, γεωγραφικό μήκος: 079-22-19W, υψόμετρο: 1236 μ

Παρών καιρός

Η αναφορά έγινε 21 λεπτά πριν, στις 20:00 UTC
Άνεμος 12 kt από Α
Θερμοκρασία 27°C
Υγρασία 37%
Πίεση 1018 hPa
Ορατότητα 10 χλμ και άνω
Αρκετά νέφη σε ύψος 4000 πόδια

METAR: SECA 192000Z 08012KT 9999 BKN040 27/11 Q1018 RMK A3008

Χρόνος: 15:21 (20:21 UTC)


TAF: λείπει

Μετεωρολογικές αναφορές και προγνώσεις για περισσότερα από 4000 αεροδρόμια (δελτία METAR και TAF).

Οι διαθέσιμοι σταθμοί απεικονίζονται στο χάρτη με κίτρινες και κόκκινες κουκκίδες.

Μετακινήστε το ποντίκι πάνω από τις κουκκίδες για να δείτε το όνομα του σταθμού.

Στη συνέχεια, κάντε κλικ για να δείτε τις μετεωρολογικές αναφορές και τις προγνώσεις καιρού.

Για να αλλάξετε το χάρτη: κάντε κλικ στα πράσινα κουμπιά με τον μαύρο σταυρό για να ζουμάρετε, στο πράσινο κουμπί με την παύλα για να αφαιρέσετε το ζουμ ή στα πράσινα βέλη για να αντιπαραβάλλετε χάρτες.


METAR-TAF: